Kaiser — NHJK — position and weather

sailwx.info

Track history (hours):
 
Tides and Currents Weather Stations Pressure Air Temp Water Temp Dewpoint Dewpoint Depression Visibility Wind Speed Wind Dir Waves Ship Positions

Kaiser

Last reported at 2015-Jan-28 13:05 UTC. Time now 2015-Jan-28 16:19 UTC.
Position N 32°15' W 118°54'.

Length 207 m; draft 8.5 m.

Type: Tanker. MMSI: 303849000.

Date/timePositionNaut miles runAvg speedWind from/ knotsBaromVisibWave heightAir tempDewpointWater temp
2015-Jan-28 13:05N 32°15' W 118°54'810.9
2015-Jan-28 12:22N 32°21' W 118°47'2111.0
2015-Jan-28 10:25N 32°36' W 118°29'911.0
2015-Jan-28 09:33N 32°36' W 118°18'1010.0
2015-Jan-28 08:33N 32°36' W 118°06'10 9.0
2015-Jan-28 07:25N 32°36' W 117°54'1 1.4
2015-Jan-28 06:33N 32°36' W 117°53'9 8.8
2015-Jan-28 05:33N 32°37' W 118°03'9 9.3
2015-Jan-28 04:33N 32°37' W 118°14'8 7.9
2015-Jan-28 03:33N 32°36' W 118°23'8 8.4
2015-Jan-28 02:33N 32°36' W 118°14'9 8.7
2015-Jan-28 01:33N 32°36' W 118°03'35 5.0
2015-Jan-27 18:31N 32°36' W 118°45'7 7.0
2015-Jan-27 17:28N 32°36' W 118°36'6 7.0
2015-Jan-27 16:33N 32°36' W 118°29'7 6.8
2015-Jan-27 15:30N 32°35' W 118°20'1 0.9
2015-Jan-27 14:18N 32°36' W 118°20'5 7.0
2015-Jan-27 13:33N 32°36' W 118°26'8 6.9
2015-Jan-27 12:26N 32°36' W 118°35'3 0.6
2015-Jan-27 07:20N 32°36' W 118°39'6 7.2
2015-Jan-27 06:33N 32°36' W 118°32'6 6.4
2015-Jan-27 05:34N 32°32' W 118°26'6 5.1
2015-Jan-27 04:22N 32°36' W 118°21'12 2.0
2015-Jan-26 22:29N 32°36' W 118°07'1111.7
2015-Jan-26 21:33N 32°36' W 117°54'1010.0
2015-Jan-26 20:33N 32°36' W 117°43'1010.2
2015-Jan-26 19:33N 32°36' W 117°31'1110.8
2015-Jan-26 18:31N 32°36' W 117°17'8 7.8
2015-Jan-26 17:31N 32°43' W 117°13'2 1.7
2015-Jan-26 16:33N 32°43' W 117°11'0 0.0
2015-Jan-26 15:30N 32°43' W 117°11'0 0.0
2015-Jan-26 14:33N 32°43' W 117°11'0 0.0
2015-Jan-26 13:33N 32°43' W 117°11'0 0.0
2015-Jan-26 12:33N 32°43' W 117°11'0 0.0
2015-Jan-26 11:33N 32°43' W 117°11'0 0.0
2015-Jan-26 10:30N 32°43' W 117°11'0 0.0
2015-Jan-26 09:33N 32°43' W 117°11'0 0.0
2015-Jan-26 08:33N 32°43' W 117°11'0 0.0
2015-Jan-26 07:33N 32°43' W 117°11'0 0.0
2015-Jan-26 06:27N 32°43' W 117°11'0 0.0
2015-Jan-26 05:33N 32°43' W 117°11'0 0.0
2015-Jan-26 04:30N 32°43' W 117°11'0 0.0
2015-Jan-26 03:30N 32°43' W 117°11'0 0.0
2015-Jan-26 02:33N 32°43' W 117°11'0 0.0
2015-Jan-26 01:30N 32°43' W 117°11'0 0.0
2015-Jan-26 00:33N 32°43' W 117°11'0 0.0
2015-Jan-25 23:33N 32°43' W 117°11'0 0.0
2015-Jan-25 22:30N 32°43' W 117°11'0 0.0
2015-Jan-25 21:33N 32°43' W 117°11'0 0.0
2015-Jan-25 20:33N 32°43' W 117°11'0 0.0
2015-Jan-25 19:33N 32°43' W 117°11'0 0.0
2015-Jan-25 18:33N 32°43' W 117°11'0 0.0
2015-Jan-25 17:33N 32°43' W 117°11'0 0.0
2015-Jan-25 16:33N 32°43' W 117°11'0 0.0
2015-Jan-25 15:33N 32°43' W 117°11'0 0.0
2015-Jan-25 14:33N 32°43' W 117°11'0 0.0
2015-Jan-25 13:33N 32°43' W 117°11'0 0.0
2015-Jan-25 12:33N 32°43' W 117°11'0 0.0
2015-Jan-25 11:33N 32°43' W 117°11'0 0.0
2015-Jan-25 10:33N 32°43' W 117°11'0 0.0
2015-Jan-25 09:33N 32°43' W 117°11'0 0.0
2015-Jan-25 08:33N 32°43' W 117°11'0 0.0
2015-Jan-25 07:33N 32°43' W 117°11'0 0.0
2015-Jan-25 06:30N 32°43' W 117°11'0 0.0
2015-Jan-25 05:33N 32°43' W 117°11'0 0.0
2015-Jan-25 04:33N 32°43' W 117°11'0 0.0
2015-Jan-25 03:33N 32°43' W 117°11'0 0.0
2015-Jan-25 02:30N 32°43' W 117°11'0 0.0
2015-Jan-25 01:30N 32°43' W 117°11'0 0.0
2015-Jan-25 00:33N 32°43' W 117°11'0 0.0
2015-Jan-24 23:33N 32°43' W 117°11'0 0.0
2015-Jan-24 22:33N 32°43' W 117°11'0 0.0
2015-Jan-24 21:33N 32°43' W 117°11'0 0.0
2015-Jan-24 20:33N 32°43' W 117°11'0 0.0
2015-Jan-24 19:30N 32°43' W 117°11'0 0.0
2015-Jan-24 18:33N 32°43' W 117°11'0 0.0
2015-Jan-24 17:33N 32°43' W 117°11'0 0.0
2015-Jan-24 16:33N 32°43' W 117°11'0 0.0
2015-Jan-24 15:33N 32°43' W 117°11'0 0.0
2015-Jan-24 14:33N 32°43' W 117°11'0 0.0
2015-Jan-24 13:33N 32°43' W 117°11'0 0.0
2015-Jan-24 12:33N 32°43' W 117°11'0 0.0
2015-Jan-24 11:33N 32°43' W 117°11'0 0.0
2015-Jan-24 10:27N 32°43' W 117°11'0 0.0
2015-Jan-24 09:33N 32°43' W 117°11'0 0.0
2015-Jan-24 08:33N 32°43' W 117°11'0 0.0
2015-Jan-24 07:33N 32°43' W 117°11'0 0.0
2015-Jan-24 06:33N 32°43' W 117°11'0 0.0
2015-Jan-24 05:33N 32°43' W 117°11'0 0.0
2015-Jan-24 04:33N 32°43' W 117°11'0 0.0
2015-Jan-24 03:33N 32°43' W 117°11'0 0.0
2015-Jan-24 02:33N 32°43' W 117°11'0 0.0
2015-Jan-24 01:33N 32°43' W 117°11'0 0.0
2015-Jan-24 00:33N 32°43' W 117°11'0 0.0
2015-Jan-23 23:33N 32°43' W 117°11'0 0.0
2015-Jan-23 22:33N 32°43' W 117°11'0 0.0
2015-Jan-23 21:33N 32°43' W 117°11'0 0.0
2015-Jan-23 20:33N 32°43' W 117°11'0 0.0
2015-Jan-23 19:33N 32°43' W 117°11'5 4.6
2015-Jan-23 18:32N 32°38' W 117°13'8 7.9
2015-Jan-23 17:31N 32°37' W 117°23'9 9.2
2015-Jan-23 16:33N 32°46' W 117°25'2 1.7
2015-Jan-23 15:33N 32°45' W 117°24'6 6.3
2015-Jan-23 14:33N 32°51' W 117°25'7 7.1
2015-Jan-23 13:33N 32°58' W 117°26'3 3.0
2015-Jan-23 12:33N 32°55' W 117°25'7 6.7
2015-Jan-23 11:33N 32°48' W 117°24'2 2.1
2015-Jan-23 10:33N 32°50' W 117°25'7 6.9
2015-Jan-23 09:33N 32°57' W 117°26'2 1.6
2015-Jan-23 08:33N 32°56' W 117°25'7 6.6
2015-Jan-23 07:33N 32°49' W 117°24'2 1.6
2015-Jan-23 06:33N 32°48' W 117°24'7 7.0
2015-Jan-23 05:33N 32°55' W 117°25'1 1.0
2015-Jan-23 04:33N 32°54' W 117°24'6 6.3
2015-Jan-23 03:33N 32°48' W 117°23'6 6.2
2015-Jan-23 02:33N 32°42' W 117°22'6 6.2
2015-Jan-23 01:33N 32°41' W 117°30'6 6.5
2015-Jan-23 00:33N 32°40' W 117°37'4 4.5
2015-Jan-22 23:33N 32°39' W 117°43'1313.0
2015-Jan-22 22:33N 32°40' W 117°27'1717.2
2015-Jan-22 21:33N 32°38' W 117°47'1413.8
2015-Jan-22 20:32N 32°36' W 118°04'2311.9
2015-Jan-22 18:34N 32°36' W 118°32'1312.9
2015-Jan-22 17:34N 32°36' W 118°47'7 6.7
2015-Jan-22 16:33N 32°36' W 118°39'9 9.1
2015-Jan-22 15:33N 32°36' W 118°28'2 1.7
2015-Jan-22 14:32N 32°36' W 118°26'9 9.0
2015-Jan-22 13:34N 32°36' W 118°37'5 4.5
2015-Jan-22 12:33N 32°36' W 118°31'8 7.1
2015-Jan-22 11:30N 32°36' W 118°22'4 4.6
2015-Jan-22 10:33N 32°36' W 118°17'9 8.8
2015-Jan-22 09:32N 32°36' W 118°28'11 9.3
2015-Jan-22 08:22N 32°36' W 118°41'8 9.1
2015-Jan-22 07:31N 32°36' W 118°50'3 3.2
2015-Jan-22 06:33N 32°36' W 118°54'8 8.5
2015-Jan-22 05:34N 32°36' W 118°43'9 8.6
2015-Jan-22 04:33N 32°36' W 118°33'8 8.5
2015-Jan-22 03:33N 32°36' W 118°23'8 8.5
2015-Jan-22 02:33N 32°37' W 118°13'17 1.4
2015-Jan-21 14:32N 32°38' W 117°53'7 7.1
2015-Jan-21 13:33N 32°40' W 117°45'7 3.5
2015-Jan-21 11:33N 32°38' W 117°53'6 6.4
2015-Jan-21 10:33N 32°40' W 117°46'6 6.3
2015-Jan-21 09:34N 32°42' W 117°39'6 6.4
2015-Jan-21 08:34N 32°43' W 117°32'5 5.4
2015-Jan-21 07:33N 32°47' W 117°27'7 7.0
2015-Jan-21 06:34N 32°53' W 117°28'2 2.2
2015-Jan-21 05:34N 32°56' W 117°29'6 6.3
2015-Jan-21 04:33N 32°50' W 117°26'6 6.3
2015-Jan-21 03:34N 32°44' W 117°24'3 3.1
2015-Jan-21 02:34N 32°46' W 117°26'7 7.1
2015-Jan-21 01:33N 32°53' W 117°29'3 3.2
2015-Jan-21 00:34N 32°56' W 117°31'6 6.3
2015-Jan-20 23:34N 32°50' W 117°27'4 3.8
2015-Jan-20 22:33N 32°47' W 117°26'7 7.2
2015-Jan-20 21:34N 32°53' W 117°28'5 4.7
2015-Jan-20 20:34N 32°58' W 117°28'6 6.2
2015-Jan-20 19:34N 32°52' W 117°29'3 2.7
2015-Jan-20 18:34N 32°50' W 117°28'5 4.9
2015-Jan-20 17:34N 32°45' W 117°26'1 1.1
2015-Jan-20 16:33N 32°44' W 117°26'7 7.0
2015-Jan-20 15:33N 32°51' W 117°27'7 7.0
2015-Jan-20 14:34N 32°58' W 117°28'2 2.3
2015-Jan-20 13:34N 32°56' W 117°27'6 6.3
2015-Jan-20 12:33N 32°49' W 117°27'6 6.4
2015-Jan-20 11:33N 32°43' W 117°27'3 2.5
2015-Jan-20 10:34N 32°45' W 117°27'7 7.1
2015-Jan-20 09:34N 32°52' W 117°28'7 7.0
2015-Jan-20 08:33N 32°59' W 117°29'4 3.7
2015-Jan-20 07:34N 32°56' W 117°28'6 6.4
2015-Jan-20 06:33N 32°49' W 117°27'6 6.4
2015-Jan-20 05:33N 32°43' W 117°26'6 5.9
2015-Jan-20 04:33N 32°41' W 117°32'8 6.8
2015-Jan-20 03:25N 32°39' W 117°41'6 6.8
2015-Jan-20 02:32N 32°38' W 117°48'6 5.7
2015-Jan-20 01:33N 32°37' W 117°55'10 7.4
2015-Jan-20 00:13N 32°36' W 118°06'4 5.8
2015-Jan-19 23:28N 32°36' W 118°11'61 9.5
2015-Jan-19 17:07N 32°36' W 119°23'23 9.1
2015-Jan-19 14:33N 32°33' W 119°51'12 2.0
2015-Jan-19 08:14N 32°35' W 119°36'18 8.9
2015-Jan-19 06:13N 32°36' W 119°15'6 8.8
2015-Jan-19 05:34N 32°36' W 119°08'10 9.1
2015-Jan-19 04:30N 32°36' W 118°57'9 9.0
2015-Jan-19 03:34N 32°36' W 118°47'9 9.1
2015-Jan-19 02:34N 32°36' W 118°36'9 9.0
2015-Jan-19 01:33N 32°35' W 118°25'4 3.7
2015-Jan-19 00:33N 32°35' W 118°29'4 3.5
2015-Jan-18 23:33N 32°36' W 118°25'8 8.4
2015-Jan-18 22:33N 32°36' W 118°36'9 9.2
2015-Jan-18 21:34N 32°36' W 118°46'4 4.4
2015-Jan-18 20:32N 32°36' W 118°52'9 9.1
2015-Jan-18 19:33N 32°36' W 118°41'9 9.1
2015-Jan-18 18:33N 32°36' W 118°30'9 9.1
2015-Jan-18 17:33N 32°36' W 118°19'9 9.2
2015-Jan-18 16:34N 32°36' W 118°09'9 9.1
2015-Jan-18 15:34N 32°36' W 117°58'9 9.2
2015-Jan-18 14:34N 32°37' W 117°47'3 3.2
2015-Jan-18 13:33N 32°36' W 117°43'  
Track history (hours):
 
Tides and Currents Weather Stations Pressure Air Temp Water Temp Dewpoint Dewpoint Depression Visibility Wind Speed Wind Dir Waves Ship Positions

Kaiser

Last reported at 2015-Jan-28 13:05 UTC. Time now 2015-Jan-28 16:19 UTC.
Position N 32°15' W 118°54'.

Length 207 m; draft 8.5 m.

Type: Tanker. MMSI: 303849000.

Date/timePositionNaut miles runAvg speedWind from/ knotsBaromVisibWave heightAir tempDewpointWater temp
2015-Jan-28 13:05N 32°15' W 118°54'810.9
2015-Jan-28 12:22N 32°21' W 118°47'2111.0
2015-Jan-28 10:25N 32°36' W 118°29'911.0
2015-Jan-28 09:33N 32°36' W 118°18'1010.0
2015-Jan-28 08:33N 32°36' W 118°06'10 9.0
2015-Jan-28 07:25N 32°36' W 117°54'1 1.4
2015-Jan-28 06:33N 32°36' W 117°53'9 8.8
2015-Jan-28 05:33N 32°37' W 118°03'9 9.3
2015-Jan-28 04:33N 32°37' W 118°14'8 7.9
2015-Jan-28 03:33N 32°36' W 118°23'8 8.4
2015-Jan-28 02:33N 32°36' W 118°14'9 8.7
2015-Jan-28 01:33N 32°36' W 118°03'35 5.0
2015-Jan-27 18:31N 32°36' W 118°45'7 7.0
2015-Jan-27 17:28N 32°36' W 118°36'6 7.0
2015-Jan-27 16:33N 32°36' W 118°29'7 6.8
2015-Jan-27 15:30N 32°35' W 118°20'1 0.9
2015-Jan-27 14:18N 32°36' W 118°20'5 7.0
2015-Jan-27 13:33N 32°36' W 118°26'8 6.9
2015-Jan-27 12:26N 32°36' W 118°35'3 0.6
2015-Jan-27 07:20N 32°36' W 118°39'6 7.2
2015-Jan-27 06:33N 32°36' W 118°32'6 6.4
2015-Jan-27 05:34N 32°32' W 118°26'6 5.1
2015-Jan-27 04:22N 32°36' W 118°21'12 2.0
2015-Jan-26 22:29N 32°36' W 118°07'1111.7
2015-Jan-26 21:33N 32°36' W 117°54'1010.0
2015-Jan-26 20:33N 32°36' W 117°43'1010.2
2015-Jan-26 19:33N 32°36' W 117°31'1110.8
2015-Jan-26 18:31N 32°36' W 117°17'8 7.8
2015-Jan-26 17:31N 32°43' W 117°13'2 1.7
2015-Jan-26 16:33N 32°43' W 117°11'0 0.0
2015-Jan-26 15:30N 32°43' W 117°11'0 0.0
2015-Jan-26 14:33N 32°43' W 117°11'0 0.0
2015-Jan-26 13:33N 32°43' W 117°11'0 0.0
2015-Jan-26 12:33N 32°43' W 117°11'0 0.0
2015-Jan-26 11:33N 32°43' W 117°11'0 0.0
2015-Jan-26 10:30N 32°43' W 117°11'0 0.0
2015-Jan-26 09:33N 32°43' W 117°11'0 0.0
2015-Jan-26 08:33N 32°43' W 117°11'0 0.0
2015-Jan-26 07:33N 32°43' W 117°11'0 0.0
2015-Jan-26 06:27N 32°43' W 117°11'0 0.0
2015-Jan-26 05:33N 32°43' W 117°11'0 0.0
2015-Jan-26 04:30N 32°43' W 117°11'0 0.0
2015-Jan-26 03:30N 32°43' W 117°11'0 0.0
2015-Jan-26 02:33N 32°43' W 117°11'0 0.0
2015-Jan-26 01:30N 32°43' W 117°11'0 0.0
2015-Jan-26 00:33N 32°43' W 117°11'0 0.0
2015-Jan-25 23:33N 32°43' W 117°11'0 0.0
2015-Jan-25 22:30N 32°43' W 117°11'0 0.0
2015-Jan-25 21:33N 32°43' W 117°11'0 0.0
2015-Jan-25 20:33N 32°43' W 117°11'0 0.0
2015-Jan-25 19:33N 32°43' W 117°11'0 0.0
2015-Jan-25 18:33N 32°43' W 117°11'0 0.0
2015-Jan-25 17:33N 32°43' W 117°11'0 0.0
2015-Jan-25 16:33N 32°43' W 117°11'0 0.0
2015-Jan-25 15:33N 32°43' W 117°11'0 0.0
2015-Jan-25 14:33N 32°43' W 117°11'0 0.0
2015-Jan-25 13:33N 32°43' W 117°11'0 0.0
2015-Jan-25 12:33N 32°43' W 117°11'0 0.0
2015-Jan-25 11:33N 32°43' W 117°11'0 0.0
2015-Jan-25 10:33N 32°43' W 117°11'0 0.0
2015-Jan-25 09:33N 32°43' W 117°11'0 0.0
2015-Jan-25 08:33N 32°43' W 117°11'0 0.0
2015-Jan-25 07:33N 32°43' W 117°11'0 0.0
2015-Jan-25 06:30N 32°43' W 117°11'0 0.0
2015-Jan-25 05:33N 32°43' W 117°11'0 0.0
2015-Jan-25 04:33N 32°43' W 117°11'0 0.0
2015-Jan-25 03:33N 32°43' W 117°11'0 0.0
2015-Jan-25 02:30N 32°43' W 117°11'0 0.0
2015-Jan-25 01:30N 32°43' W 117°11'0 0.0
2015-Jan-25 00:33N 32°43' W 117°11'0 0.0
2015-Jan-24 23:33N 32°43' W 117°11'0 0.0
2015-Jan-24 22:33N 32°43' W 117°11'0 0.0
2015-Jan-24 21:33N 32°43' W 117°11'0 0.0
2015-Jan-24 20:33N 32°43' W 117°11'0 0.0
2015-Jan-24 19:30N 32°43' W 117°11'0 0.0
2015-Jan-24 18:33N 32°43' W 117°11'0 0.0
2015-Jan-24 17:33N 32°43' W 117°11'0 0.0
2015-Jan-24 16:33N 32°43' W 117°11'0 0.0
2015-Jan-24 15:33N 32°43' W 117°11'0 0.0
2015-Jan-24 14:33N 32°43' W 117°11'0 0.0
2015-Jan-24 13:33N 32°43' W 117°11'0 0.0
2015-Jan-24 12:33N 32°43' W 117°11'0 0.0
2015-Jan-24 11:33N 32°43' W 117°11'0 0.0
2015-Jan-24 10:27N 32°43' W 117°11'0 0.0
2015-Jan-24 09:33N 32°43' W 117°11'0 0.0
2015-Jan-24 08:33N 32°43' W 117°11'0 0.0
2015-Jan-24 07:33N 32°43' W 117°11'0 0.0
2015-Jan-24 06:33N 32°43' W 117°11'0 0.0
2015-Jan-24 05:33N 32°43' W 117°11'0 0.0
2015-Jan-24 04:33N 32°43' W 117°11'0 0.0
2015-Jan-24 03:33N 32°43' W 117°11'0 0.0
2015-Jan-24 02:33N 32°43' W 117°11'0 0.0
2015-Jan-24 01:33N 32°43' W 117°11'0 0.0
2015-Jan-24 00:33N 32°43' W 117°11'0 0.0
2015-Jan-23 23:33N 32°43' W 117°11'0 0.0
2015-Jan-23 22:33N 32°43' W 117°11'0 0.0
2015-Jan-23 21:33N 32°43' W 117°11'0 0.0
2015-Jan-23 20:33N 32°43' W 117°11'0 0.0
2015-Jan-23 19:33N 32°43' W 117°11'5 4.6
2015-Jan-23 18:32N 32°38' W 117°13'8 7.9
2015-Jan-23 17:31N 32°37' W 117°23'9 9.2
2015-Jan-23 16:33N 32°46' W 117°25'2 1.7
2015-Jan-23 15:33N 32°45' W 117°24'6 6.3
2015-Jan-23 14:33N 32°51' W 117°25'7 7.1
2015-Jan-23 13:33N 32°58' W 117°26'3 3.0
2015-Jan-23 12:33N 32°55' W 117°25'7 6.7
2015-Jan-23 11:33N 32°48' W 117°24'2 2.1
2015-Jan-23 10:33N 32°50' W 117°25'7 6.9
2015-Jan-23 09:33N 32°57' W 117°26'2 1.6
2015-Jan-23 08:33N 32°56' W 117°25'7 6.6
2015-Jan-23 07:33N 32°49' W 117°24'2 1.6
2015-Jan-23 06:33N 32°48' W 117°24'7 7.0
2015-Jan-23 05:33N 32°55' W 117°25'1 1.0
2015-Jan-23 04:33N 32°54' W 117°24'6 6.3
2015-Jan-23 03:33N 32°48' W 117°23'6 6.2
2015-Jan-23 02:33N 32°42' W 117°22'6 6.2
2015-Jan-23 01:33N 32°41' W 117°30'6 6.5
2015-Jan-23 00:33N 32°40' W 117°37'4 4.5
2015-Jan-22 23:33N 32°39' W 117°43'1313.0
2015-Jan-22 22:33N 32°40' W 117°27'1717.2
2015-Jan-22 21:33N 32°38' W 117°47'1413.8
2015-Jan-22 20:32N 32°36' W 118°04'2311.9
2015-Jan-22 18:34N 32°36' W 118°32'1312.9
2015-Jan-22 17:34N 32°36' W 118°47'7 6.7
2015-Jan-22 16:33N 32°36' W 118°39'9 9.1
2015-Jan-22 15:33N 32°36' W 118°28'2 1.7
2015-Jan-22 14:32N 32°36' W 118°26'9 9.0
2015-Jan-22 13:34N 32°36' W 118°37'5 4.5
2015-Jan-22 12:33N 32°36' W 118°31'8 7.1
2015-Jan-22 11:30N 32°36' W 118°22'4 4.6
2015-Jan-22 10:33N 32°36' W 118°17'9 8.8
2015-Jan-22 09:32N 32°36' W 118°28'11 9.3
2015-Jan-22 08:22N 32°36' W 118°41'8 9.1
2015-Jan-22 07:31N 32°36' W 118°50'3 3.2
2015-Jan-22 06:33N 32°36' W 118°54'8 8.5
2015-Jan-22 05:34N 32°36' W 118°43'9 8.6
2015-Jan-22 04:33N 32°36' W 118°33'8 8.5
2015-Jan-22 03:33N 32°36' W 118°23'8 8.5
2015-Jan-22 02:33N 32°37' W 118°13'17 1.4
2015-Jan-21 14:32N 32°38' W 117°53'7 7.1
2015-Jan-21 13:33N 32°40' W 117°45'7 3.5
2015-Jan-21 11:33N 32°38' W 117°53'6 6.4
2015-Jan-21 10:33N 32°40' W 117°46'6 6.3
2015-Jan-21 09:34N 32°42' W 117°39'6 6.4
2015-Jan-21 08:34N 32°43' W 117°32'5 5.4
2015-Jan-21 07:33N 32°47' W 117°27'7 7.0
2015-Jan-21 06:34N 32°53' W 117°28'2 2.2
2015-Jan-21 05:34N 32°56' W 117°29'6 6.3
2015-Jan-21 04:33N 32°50' W 117°26'6 6.3
2015-Jan-21 03:34N 32°44' W 117°24'3 3.1
2015-Jan-21 02:34N 32°46' W 117°26'7 7.1
2015-Jan-21 01:33N 32°53' W 117°29'3 3.2
2015-Jan-21 00:34N 32°56' W 117°31'6 6.3
2015-Jan-20 23:34N 32°50' W 117°27'4 3.8
2015-Jan-20 22:33N 32°47' W 117°26'7 7.2
2015-Jan-20 21:34N 32°53' W 117°28'5 4.7
2015-Jan-20 20:34N 32°58' W 117°28'6 6.2
2015-Jan-20 19:34N 32°52' W 117°29'3 2.7
2015-Jan-20 18:34N 32°50' W 117°28'5 4.9
2015-Jan-20 17:34N 32°45' W 117°26'1 1.1
2015-Jan-20 16:33N 32°44' W 117°26'7 7.0
2015-Jan-20 15:33N 32°51' W 117°27'7 7.0
2015-Jan-20 14:34N 32°58' W 117°28'2 2.3
2015-Jan-20 13:34N 32°56' W 117°27'6 6.3
2015-Jan-20 12:33N 32°49' W 117°27'6 6.4
2015-Jan-20 11:33N 32°43' W 117°27'3 2.5
2015-Jan-20 10:34N 32°45' W 117°27'7 7.1
2015-Jan-20 09:34N 32°52' W 117°28'7 7.0
2015-Jan-20 08:33N 32°59' W 117°29'4 3.7
2015-Jan-20 07:34N 32°56' W 117°28'6 6.4
2015-Jan-20 06:33N 32°49' W 117°27'6 6.4
2015-Jan-20 05:33N 32°43' W 117°26'6 5.9
2015-Jan-20 04:33N 32°41' W 117°32'8 6.8
2015-Jan-20 03:25N 32°39' W 117°41'6 6.8
2015-Jan-20 02:32N 32°38' W 117°48'6 5.7
2015-Jan-20 01:33N 32°37' W 117°55'10 7.4
2015-Jan-20 00:13N 32°36' W 118°06'4 5.8
2015-Jan-19 23:28N 32°36' W 118°11'61 9.5
2015-Jan-19 17:07N 32°36' W 119°23'23 9.1
2015-Jan-19 14:33N 32°33' W 119°51'12 2.0
2015-Jan-19 08:14N 32°35' W 119°36'18 8.9
2015-Jan-19 06:13N 32°36' W 119°15'6 8.8
2015-Jan-19 05:34N 32°36' W 119°08'10 9.1
2015-Jan-19 04:30N 32°36' W 118°57'9 9.0
2015-Jan-19 03:34N 32°36' W 118°47'9 9.1
2015-Jan-19 02:34N 32°36' W 118°36'9 9.0
2015-Jan-19 01:33N 32°35' W 118°25'4 3.7
2015-Jan-19 00:33N 32°35' W 118°29'4 3.5
2015-Jan-18 23:33N 32°36' W 118°25'8 8.4
2015-Jan-18 22:33N 32°36' W 118°36'9 9.2
2015-Jan-18 21:34N 32°36' W 118°46'4 4.4
2015-Jan-18 20:32N 32°36' W 118°52'9 9.1
2015-Jan-18 19:33N 32°36' W 118°41'9 9.1
2015-Jan-18 18:33N 32°36' W 118°30'9 9.1
2015-Jan-18 17:33N 32°36' W 118°19'9 9.2
2015-Jan-18 16:34N 32°36' W 118°09'9 9.1
2015-Jan-18 15:34N 32°36' W 117°58'9 9.2
2015-Jan-18 14:34N 32°37' W 117°47'3 3.2
2015-Jan-18 13:33N 32°36' W 117°43'  

Dump ship's entire track history